Time;durP1;ratioP1;P1;durP2;ratioP2;P2;SDS_P1;SDS_P2;PMS_P1;PMS_P2;Temp;Humidity;BMP_temperature;BMP_pressure;BME280_temperature;BME280_humidity;BME280_pressure;Samples;Min_cycle;Max_cycle;Signal;HPM_P1;HPM_P2
2023/05/04 00:02:13;;;;;;;12.00;11.13;;;;;;;;;;4949251;29;20497;-74
2023/05/04 00:04:41;;;;;;;10.87;9.17;;;;;;;;;;4965369;28;20429;-74
2023/05/04 00:07:07;;;;;;;12.43;11.40;;;;;;;;;;4957306;28;20442;-74
2023/05/04 00:09:33;;;;;;;12.53;11.63;;;;;;;;;;4951733;28;20442;-74
2023/05/04 00:11:59;;;;;;;13.73;11.20;;;;;;;;;;4944032;28;20447;-74
2023/05/04 00:14:25;;;;;;;17.90;16.40;;;;;;;;;;4965046;28;20431;-74
2023/05/04 00:16:51;;;;;;;14.33;13.13;;;;;;;;;;4952670;28;20474;-74
2023/05/04 00:19:18;;;;;;;28.53;25.97;;;;;;;;;;4957812;28;20844;-74
2023/05/04 00:21:44;;;;;;;9.87;9.20;;;;;;;;;;4964230;28;20442;-74
2023/05/04 00:24:10;;;;;;;11.70;10.70;;;;;;;;;;4942293;28;20442;-74
2023/05/04 00:26:36;;;;;;;12.23;11.37;;;;;;;;;;4949890;28;21164;-75
2023/05/04 00:29:02;;;;;;;12.37;11.47;;;;;;;;;;4951960;28;20461;-74
2023/05/04 00:31:28;;;;;;;13.57;12.37;;;;;;;;;;4949139;28;20441;-74
2023/05/04 00:33:54;;;;;;;13.00;12.03;;;;;;;;;;4949740;28;20980;-74
2023/05/04 00:36:20;;;;;;;13.00;12.00;;;;;;;;;;4948153;29;20556;-74
2023/05/04 00:38:48;;;;;;;10.60;9.83;;;;;;;;;;4925326;29;20844;-74
2023/05/04 00:41:14;;;;;;;10.77;9.77;;;;;;;;;;4946195;28;20978;-75
2023/05/04 00:43:40;;;;;;;13.57;9.63;;;;;;;;;;4953005;28;20446;-75
2023/05/04 00:46:06;;;;;;;10.70;9.77;;;;;;;;;;4959296;28;20457;-74
2023/05/04 00:48:32;;;;;;;14.53;13.53;;;;;;;;;;4939812;28;20816;-73
2023/05/04 00:50:58;;;;;;;10.27;9.57;;;;;;;;;;4939915;29;20449;-73
2023/05/04 00:53:24;;;;;;;13.20;12.00;;;;;;;;;;4952461;28;20815;-74
2023/05/04 00:55:50;;;;;;;10.67;9.80;;;;;;;;;;4949597;28;20808;-75
2023/05/04 00:58:17;;;;;;;9.57;8.83;;;;;;;;;;4940308;28;20940;-73
2023/05/04 01:00:43;;;;;;;10.33;9.73;;;;;;;;;;4943536;29;20419;-73
2023/05/04 01:03:09;;;;;;;10.37;9.23;;;;;;;;;;4944818;28;20507;-73
2023/05/04 01:05:45;;;;;;;8.03;7.53;;;;;;;;;;4925811;29;20484;-74
2023/05/04 01:08:17;;;;;;;10.57;9.77;;;;;;;;;;4941858;28;20449;-74
2023/05/04 01:10:53;;;;;;;11.93;10.93;;;;;;;;;;4931253;29;20469;-74
2023/05/04 01:13:21;;;;;;;11.50;10.37;;;;;;;;;;4950545;28;20422;-74
2023/05/04 01:15:48;;;;;;;11.77;10.80;;;;;;;;;;4935209;29;20411;-73
2023/05/04 01:18:15;;;;;;;11.40;10.07;;;;;;;;;;4955778;28;20894;-74
2023/05/04 01:20:41;;;;;;;11.23;10.10;;;;;;;;;;4938601;28;20433;-74
2023/05/04 01:23:07;;;;;;;9.87;8.97;;;;;;;;;;4948687;28;20457;-74
2023/05/04 01:25:43;;;;;;;10.57;9.73;;;;;;;;;;4932452;29;20832;-74
2023/05/04 01:28:12;;;;;;;14.23;11.30;;;;;;;;;;4929882;28;21011;-74
2023/05/04 01:30:43;;;;;;;11.10;10.10;;;;;;;;;;4941179;28;20522;-74
2023/05/04 01:33:09;;;;;;;12.40;10.70;;;;;;;;;;4947596;28;20477;-74
2023/05/04 01:35:36;;;;;;;11.50;10.50;;;;;;;;;;4943352;29;20426;-74
2023/05/04 01:38:03;;;;;;;27.20;24.53;;;;;;;;;;4950231;28;21069;-74
2023/05/04 01:40:29;;;;;;;11.10;10.10;;;;;;;;;;4950821;29;20857;-74
2023/05/04 01:42:55;;;;;;;40.37;36.63;;;;;;;;;;4938601;29;20451;-74
2023/05/04 01:45:21;;;;;;;11.27;10.20;;;;;;;;;;4943282;29;20419;-74
2023/05/04 01:47:47;;;;;;;9.87;9.07;;;;;;;;;;4941413;29;20430;-74
2023/05/04 01:50:13;;;;;;;11.07;9.97;;;;;;;;;;4944027;29;20534;-74
2023/05/04 01:52:40;;;;;;;11.63;10.73;;;;;;;;;;4944530;29;20473;-74
2023/05/04 01:55:06;;;;;;;9.80;9.00;;;;;;;;;;4947664;29;21018;-74
2023/05/04 01:57:32;;;;;;;11.77;10.47;;;;;;;;;;4950514;29;20506;-74
2023/05/04 01:59:58;;;;;;;11.50;10.33;;;;;;;;;;4946760;29;20464;-74
2023/05/04 02:02:24;;;;;;;10.57;9.67;;;;;;;;;;4945284;29;20446;-73
2023/05/04 02:04:50;;;;;;;10.23;9.47;;;;;;;;;;4944255;29;20446;-74
2023/05/04 02:07:16;;;;;;;12.33;11.10;;;;;;;;;;4950578;29;20496;-74
2023/05/04 02:09:42;;;;;;;9.97;9.23;;;;;;;;;;4946884;29;20450;-75
2023/05/04 02:12:08;;;;;;;11.40;10.40;;;;;;;;;;4946192;29;20439;-74
2023/05/04 02:14:34;;;;;;;14.47;11.80;;;;;;;;;;4946156;29;20878;-74
2023/05/04 02:17:00;;;;;;;10.13;9.40;;;;;;;;;;4947929;29;20466;-74
2023/05/04 02:19:26;;;;;;;11.70;10.77;;;;;;;;;;4933025;29;20438;-73
2023/05/04 02:21:52;;;;;;;11.63;10.17;;;;;;;;;;4937143;29;20439;-74
2023/05/04 02:24:18;;;;;;;11.47;10.37;;;;;;;;;;4946307;29;20452;-74
2023/05/04 02:26:44;;;;;;;11.60;10.53;;;;;;;;;;4945818;29;20470;-74
2023/05/04 02:29:10;;;;;;;11.67;10.80;;;;;;;;;;4945090;28;20848;-76
2023/05/04 02:31:37;;;;;;;13.67;12.47;;;;;;;;;;4948923;29;20438;-73
2023/05/04 02:34:03;;;;;;;10.77;9.73;;;;;;;;;;4928871;29;20833;-74
2023/05/04 02:36:29;;;;;;;11.53;10.53;;;;;;;;;;4950418;29;20974;-74
2023/05/04 02:38:55;;;;;;;7.93;7.43;;;;;;;;;;4948313;28;20958;-74
2023/05/04 02:41:21;;;;;;;10.37;9.40;;;;;;;;;;4941912;29;20803;-74
2023/05/04 02:43:47;;;;;;;10.23;9.27;;;;;;;;;;4945659;29;20457;-74
2023/05/04 02:46:13;;;;;;;12.07;11.17;;;;;;;;;;4949547;29;20477;-75
2023/05/04 02:48:39;;;;;;;12.07;11.07;;;;;;;;;;4945462;28;20430;-75
2023/05/04 02:51:05;;;;;;;12.47;11.27;;;;;;;;;;4949281;29;20989;-75
2023/05/04 02:53:31;;;;;;;11.77;10.67;;;;;;;;;;4944165;29;20443;-75
2023/05/04 02:55:57;;;;;;;11.50;10.27;;;;;;;;;;4949376;29;20414;-75
2023/05/04 02:58:23;;;;;;;11.67;10.47;;;;;;;;;;4947831;29;20461;-75
2023/05/04 03:00:53;;;;;;;11.80;10.83;;;;;;;;;;4941020;29;20937;-75
2023/05/04 03:03:19;;;;;;;12.30;11.33;;;;;;;;;;4942315;29;20434;-75
2023/05/04 03:05:45;;;;;;;13.07;10.80;;;;;;;;;;4941922;29;20410;-75
2023/05/04 03:08:11;;;;;;;14.93;11.10;;;;;;;;;;4942447;29;20525;-75
2023/05/04 03:10:37;;;;;;;10.17;9.37;;;;;;;;;;4949199;29;20926;-75
2023/05/04 03:13:04;;;;;;;9.77;8.73;;;;;;;;;;4943405;29;20852;-74
2023/05/04 03:15:34;;;;;;;11.03;9.93;;;;;;;;;;4939485;29;20410;-74
2023/05/04 03:18:00;;;;;;;23.93;22.03;;;;;;;;;;4945612;29;20505;-73
2023/05/04 03:20:26;;;;;;;13.97;10.50;;;;;;;;;;4949297;29;20418;-73
2023/05/04 03:22:52;;;;;;;23.50;21.20;;;;;;;;;;4941027;29;20976;-73
2023/05/04 03:25:18;;;;;;;10.80;9.73;;;;;;;;;;4949209;28;20617;-73
2023/05/04 03:27:44;;;;;;;15.60;10.67;;;;;;;;;;4945210;29;20449;-73
2023/05/04 03:30:10;;;;;;;9.67;8.97;;;;;;;;;;4948632;28;20434;-74
2023/05/04 03:32:36;;;;;;;13.00;10.90;;;;;;;;;;4948871;29;20422;-73
2023/05/04 03:35:03;;;;;;;10.57;9.40;;;;;;;;;;4945605;29;20368;-74
2023/05/04 03:37:29;;;;;;;10.52;9.00;;;;;;;;;;4939081;29;20486;-74
2023/05/04 03:39:57;;;;;;;8.70;8.17;;;;;;;;;;4944727;28;20221;-73
2023/05/04 03:42:23;;;;;;;10.17;9.33;;;;;;;;;;4942153;29;20897;-76
2023/05/04 03:44:49;;;;;;;10.17;9.17;;;;;;;;;;4937555;28;20451;-73
2023/05/04 03:47:15;;;;;;;8.30;7.57;;;;;;;;;;4948104;29;20900;-74
2023/05/04 03:49:44;;;;;;;11.87;10.63;;;;;;;;;;4949024;28;20800;-73
2023/05/04 03:52:10;;;;;;;8.63;7.97;;;;;;;;;;4939709;29;20419;-74
2023/05/04 03:54:36;;;;;;;8.53;7.93;;;;;;;;;;4944001;28;20882;-74
2023/05/04 03:57:03;;;;;;;8.83;8.00;;;;;;;;;;4938390;29;20462;-73
2023/05/04 03:59:29;;;;;;;14.87;13.80;;;;;;;;;;4931914;28;20648;-73
2023/05/04 04:01:55;;;;;;;9.97;9.10;;;;;;;;;;4948084;28;20417;-74
2023/05/04 04:04:21;;;;;;;10.60;9.17;;;;;;;;;;4944229;28;20557;-74
2023/05/04 04:06:47;;;;;;;9.30;8.33;;;;;;;;;;4948485;29;20962;-75
2023/05/04 04:09:13;;;;;;;10.33;9.23;;;;;;;;;;4948373;29;20438;-74
2023/05/04 04:11:39;;;;;;;11.07;10.17;;;;;;;;;;4937318;28;20447;-74
2023/05/04 04:14:05;;;;;;;9.20;8.40;;;;;;;;;;4949577;28;20754;-72
2023/05/04 04:16:31;;;;;;;9.83;8.97;;;;;;;;;;4945249;28;20844;-74
2023/05/04 04:18:57;;;;;;;9.70;8.67;;;;;;;;;;4947732;29;20426;-73
2023/05/04 04:21:23;;;;;;;10.03;9.10;;;;;;;;;;4944562;28;21021;-74
2023/05/04 04:23:49;;;;;;;9.47;8.10;;;;;;;;;;4943205;29;20430;-74
2023/05/04 04:26:15;;;;;;;8.07;7.50;;;;;;;;;;4955937;28;20441;-74
2023/05/04 04:28:43;;;;;;;8.70;8.03;;;;;;;;;;4948054;28;20445;-73
2023/05/04 04:31:09;;;;;;;9.20;8.40;;;;;;;;;;4944990;28;20569;-73
2023/05/04 04:33:35;;;;;;;12.10;9.23;;;;;;;;;;4948391;29;20433;-73
2023/05/04 04:36:01;;;;;;;9.43;8.57;;;;;;;;;;4944282;28;20438;-74
2023/05/04 04:38:27;;;;;;;9.00;8.20;;;;;;;;;;4960494;28;21041;-74
2023/05/04 04:40:53;;;;;;;9.50;8.70;;;;;;;;;;4954560;28;20457;-74
2023/05/04 04:43:19;;;;;;;11.33;8.67;;;;;;;;;;4955565;28;20442;-74
2023/05/04 04:45:46;;;;;;;13.60;8.00;;;;;;;;;;4941311;28;20458;-74
2023/05/04 04:48:12;;;;;;;14.20;9.70;;;;;;;;;;4957037;28;20478;-75
2023/05/04 04:50:39;;;;;;;10.77;8.43;;;;;;;;;;4944176;28;20484;-75
2023/05/04 04:53:05;;;;;;;7.90;7.30;;;;;;;;;;4958934;28;20463;-74
2023/05/04 04:55:31;;;;;;;9.70;8.43;;;;;;;;;;4950200;28;20586;-73
2023/05/04 04:57:57;;;;;;;10.97;9.27;;;;;;;;;;4926579;29;20870;-74
2023/05/04 05:00:25;;;;;;;10.00;8.07;;;;;;;;;;4951752;28;20458;-73
2023/05/04 05:02:51;;;;;;;8.57;7.87;;;;;;;;;;4951106;28;20446;-73
2023/05/04 05:05:17;;;;;;;9.60;8.90;;;;;;;;;;4956543;28;20456;-75
2023/05/04 05:07:43;;;;;;;10.40;8.90;;;;;;;;;;4944002;28;20442;-74
2023/05/04 05:10:09;;;;;;;10.87;8.83;;;;;;;;;;4942022;28;20695;-74
2023/05/04 05:12:35;;;;;;;8.97;8.20;;;;;;;;;;4941423;28;20732;-73
2023/05/04 05:15:03;;;;;;;11.07;9.90;;;;;;;;;;4946499;28;20446;-74
2023/05/04 05:17:29;;;;;;;10.03;9.17;;;;;;;;;;4943906;29;20466;-74
2023/05/04 05:19:55;;;;;;;10.27;9.47;;;;;;;;;;4950372;28;20445;-74
2023/05/04 05:22:22;;;;;;;9.70;8.87;;;;;;;;;;4941938;29;20477;-74
2023/05/04 05:24:50;;;;;;;8.97;8.27;;;;;;;;;;4951445;28;20496;-75
2023/05/04 05:27:16;;;;;;;9.03;8.33;;;;;;;;;;4946973;29;20424;-75
2023/05/04 05:29:43;;;;;;;14.43;8.43;;;;;;;;;;4954981;28;20452;-75
2023/05/04 05:32:09;;;;;;;9.47;7.97;;;;;;;;;;4940919;29;20490;-74
2023/05/04 05:34:37;;;;;;;20.43;18.33;;;;;;;;;;4943473;28;20919;-74
2023/05/04 05:37:04;;;;;;;9.23;8.53;;;;;;;;;;4946008;29;20549;-73
2023/05/04 05:39:30;;;;;;;12.33;11.33;;;;;;;;;;4928996;28;20526;-75
2023/05/04 05:41:59;;;;;;;8.37;7.77;;;;;;;;;;4943341;29;20558;-75
2023/05/04 05:44:25;;;;;;;7.67;6.63;;;;;;;;;;4939839;29;20454;-75
2023/05/04 05:46:51;;;;;;;6.80;6.50;;;;;;;;;;4945481;29;20713;-74
2023/05/04 05:49:19;;;;;;;7.20;6.80;;;;;;;;;;4942779;29;20537;-74
2023/05/04 05:51:45;;;;;;;6.70;6.40;;;;;;;;;;4945963;29;20429;-74
2023/05/04 05:54:11;;;;;;;9.03;7.60;;;;;;;;;;4943052;29;20521;-75
2023/05/04 05:56:37;;;;;;;9.80;9.20;;;;;;;;;;4946290;29;20477;-75
2023/05/04 05:59:03;;;;;;;9.13;8.30;;;;;;;;;;4942810;29;20446;-74
2023/05/04 06:01:29;;;;;;;10.87;9.90;;;;;;;;;;4945947;29;20898;-74
2023/05/04 06:03:55;;;;;;;8.20;7.40;;;;;;;;;;4942359;29;20477;-75
2023/05/04 06:06:21;;;;;;;7.73;7.03;;;;;;;;;;4937887;29;20458;-74
2023/05/04 06:08:47;;;;;;;7.80;7.20;;;;;;;;;;4942151;29;21068;-74
2023/05/04 06:11:13;;;;;;;8.40;7.90;;;;;;;;;;4942441;28;20438;-74
2023/05/04 06:13:39;;;;;;;8.47;7.33;;;;;;;;;;4945998;29;20580;-76
2023/05/04 06:16:05;;;;;;;8.77;8.07;;;;;;;;;;4943178;28;20987;-74
2023/05/04 06:18:31;;;;;;;9.30;8.50;;;;;;;;;;4946041;29;20465;-74
2023/05/04 06:20:58;;;;;;;8.17;7.53;;;;;;;;;;4942794;29;20434;-74
2023/05/04 06:23:25;;;;;;;7.30;6.87;;;;;;;;;;4943824;28;20559;-74
2023/05/04 06:25:51;;;;;;;8.00;7.40;;;;;;;;;;4945656;28;20446;-75
2023/05/04 06:28:17;;;;;;;7.60;6.90;;;;;;;;;;4949696;28;20597;-75
2023/05/04 06:30:43;;;;;;;8.00;7.23;;;;;;;;;;4946490;29;20540;-74
2023/05/04 06:33:09;;;;;;;6.23;5.83;;;;;;;;;;4949572;29;20438;-74
2023/05/04 06:35:35;;;;;;;6.70;6.40;;;;;;;;;;4951699;29;20456;-76
2023/05/04 06:38:02;;;;;;;6.80;6.30;;;;;;;;;;4951593;29;20961;-75
2023/05/04 06:40:28;;;;;;;6.30;5.43;;;;;;;;;;4946037;29;20493;-75
2023/05/04 06:42:54;;;;;;;6.37;6.07;;;;;;;;;;4949013;29;20438;-75
2023/05/04 06:45:20;;;;;;;7.10;6.47;;;;;;;;;;4945124;28;20508;-75
2023/05/04 06:47:46;;;;;;;7.00;6.60;;;;;;;;;;4948852;29;20433;-73
2023/05/04 06:50:13;;;;;;;9.55;8.68;;;;;;;;;;4940113;28;20896;-74
2023/05/04 06:52:39;;;;;;;7.70;6.97;;;;;;;;;;4947860;29;20277;-74
2023/05/04 06:55:06;;;;;;;8.50;6.20;;;;;;;;;;4945480;28;20454;-75
2023/05/04 06:57:33;;;;;;;5.90;5.50;;;;;;;;;;4940738;29;21159;-75
2023/05/04 06:59:59;;;;;;;6.60;5.97;;;;;;;;;;4938737;29;20450;-75
2023/05/04 07:02:25;;;;;;;6.10;5.63;;;;;;;;;;4930931;29;20938;-75
2023/05/04 07:04:51;;;;;;;6.60;5.97;;;;;;;;;;4944398;28;20857;-75
2023/05/04 07:07:18;;;;;;;7.00;6.60;;;;;;;;;;4948228;29;20501;-76
2023/05/04 07:09:46;;;;;;;8.00;7.50;;;;;;;;;;4945326;29;20815;-74
2023/05/04 07:12:13;;;;;;;7.00;6.50;;;;;;;;;;4942660;29;20445;-76
2023/05/04 07:14:42;;;;;;;6.83;6.43;;;;;;;;;;4943840;28;20870;-76
2023/05/04 07:17:12;;;;;;;8.67;7.97;;;;;;;;;;4941273;29;20484;-75
2023/05/04 07:19:38;;;;;;;5.77;5.50;;;;;;;;;;4938488;28;20944;-76
2023/05/04 07:22:04;;;;;;;5.20;5.10;;;;;;;;;;4939387;29;20471;-76
2023/05/04 07:24:30;;;;;;;7.13;6.60;;;21.70;97.50;;;;;;4943246;29;20473;-76
2023/05/04 07:26:56;;;;;;;5.33;4.93;;;22.00;96.90;;;;;;4945702;29;21243;-76
2023/05/04 07:29:21;;;;;;;6.73;6.17;;;22.90;96.30;;;;;;4944379;28;20213;-75
2023/05/04 07:31:47;;;;;;;9.13;6.73;;;22.70;95.80;;;;;;4945592;29;20572;-76
2023/05/04 07:34:13;;;;;;;6.47;5.40;;;;;;;;;;4943226;29;20623;-76
2023/05/04 07:36:42;;;;;;;6.60;6.17;;;;;;;;;;4947252;28;20733;-77
2023/05/04 07:39:08;;;;;;;6.10;5.70;;;;;;;;;;4944622;29;20450;-76
2023/05/04 07:41:35;;;;;;;8.97;8.27;;;;;;;;;;4945063;29;20820;-76
2023/05/04 07:44:04;;;;;;;6.90;6.40;;;;;;;;;;4944542;29;20446;-77
2023/05/04 07:46:30;;;;;;;8.20;7.70;;;;;;;;;;4947875;29;20426;-77
2023/05/04 07:48:56;;;;;;;6.60;6.20;;;;;;;;;;4938312;28;20445;-76
2023/05/04 07:51:22;;;;;;;5.80;5.53;;;;;;;;;;4946231;29;20785;-76
2023/05/04 07:53:48;;;;;;;6.17;5.70;;;;;;;;;;4943616;29;20489;-76
2023/05/04 07:56:14;;;;;;;8.40;7.70;;;;;;;;;;4947857;29;20470;-74
2023/05/04 07:58:40;;;;;;;9.00;8.23;;;;;;;;;;4938330;29;20469;-75
2023/05/04 08:01:07;;;;;;;6.47;6.23;;;;;;;;;;4942216;28;20977;-75
2023/05/04 08:03:33;;;;;;;6.00;5.70;;;;;;;;;;4947438;29;20533;-75
2023/05/04 08:05:59;;;;;;;7.03;6.60;;;;;;;;;;4943647;29;20439;-74
2023/05/04 08:08:25;;;;;;;5.27;5.07;;;;;;;;;;4947428;28;20492;-75
2023/05/04 08:10:51;;;;;;;6.60;5.47;;;;;;;;;;4942988;29;20505;-75
2023/05/04 08:13:17;;;;;;;5.63;5.33;;;;;;;;;;4947170;29;20430;-75
2023/05/04 08:15:43;;;;;;;4.63;4.43;;;;;;;;;;4943441;29;21025;-74
2023/05/04 08:18:09;;;;;;;6.37;5.20;;;;;;;;;;4946700;29;20521;-75
2023/05/04 08:20:36;;;;;;;5.33;4.97;;;;;;;;;;4943432;29;20470;-76
2023/05/04 08:23:02;;;;;;;6.33;5.93;;;;;;;;;;4948976;28;20841;-76
2023/05/04 08:25:28;;;;;;;7.43;6.90;;;;;;;;;;4943848;29;21201;-75
2023/05/04 08:27:55;;;;;;;6.70;6.13;;;;;;;;;;4946728;28;21004;-77
2023/05/04 08:30:21;;;;;;;5.93;5.57;;;;;;;;;;4944139;29;20545;-75
2023/05/04 08:32:47;;;;;;;5.00;4.80;;;;;;;;;;4945027;29;20662;-75
2023/05/04 08:35:16;;;;;;;4.53;4.30;;;;;;;;;;4943704;29;20488;-76
2023/05/04 08:37:42;;;;;;;4.70;4.47;;;;;;;;;;4929606;28;20446;-76
2023/05/04 08:40:08;;;;;;;3.77;3.60;;;28.80;59.60;;;;;;4947637;28;20481;-78
2023/05/04 08:42:34;;;;;;;9.63;5.43;;;28.90;59.20;;;;;;4944668;29;21006;-75
2023/05/04 08:45:00;;;;;;;4.10;3.80;;;28.90;59.50;;;;;;4947056;29;20818;-76
2023/05/04 08:47:26;;;;;;;8.90;8.23;;;;;;;;;;4942097;28;20700;-76
2023/05/04 08:49:53;;;;;;;4.63;4.30;;;;;;;;;;4937059;28;20182;-76
2023/05/04 08:52:21;;;;;;;4.47;4.20;;;;;;;;;;4942511;28;20775;-76
2023/05/04 08:54:48;;;;;;;4.30;4.20;;;;;;;;;;4946591;29;20822;-76
2023/05/04 08:57:16;;;;;;;5.10;4.97;;;;;;;;;;4945064;29;20422;-76
2023/05/04 08:59:42;;;;;;;6.10;5.80;;;;;;;;;;4945779;29;20445;-75
2023/05/04 09:02:11;;;;;;;6.90;6.40;;;;;;;;;;4932861;29;20762;-76
2023/05/04 09:04:37;;;;;;;4.20;3.93;;;;;;;;;;4940882;29;20532;-75
2023/05/04 09:07:03;;;;;;;4.23;3.97;;;;;;;;;;4939486;28;20510;-75
2023/05/04 09:09:30;;;;;;;4.20;4.07;;;;;;;;;;4940705;29;23886;-75
2023/05/04 09:11:57;;;;;;;4.90;4.60;;;;;;;;;;4946177;28;20434;-75
2023/05/04 09:14:31;;;;;;;4.97;3.97;;;;;;;;;;4940880;29;20537;-75
2023/05/04 09:16:57;;;;;;;4.20;4.10;;;;;;;;;;4940208;29;20454;-74
2023/05/04 09:19:23;;;;;;;4.63;4.53;;;;;;;;;;4936836;29;20992;-76
2023/05/04 09:21:53;;;;;;;26.70;24.20;;;;;;;;;;4941082;29;20442;-74
2023/05/04 09:24:28;;;;;;;6.30;5.73;;;;;;;;;;4941068;29;20517;-76
2023/05/04 09:26:55;;;;;;;4.67;4.57;;;;;;;;;;4945601;29;21035;-76
2023/05/04 09:29:24;;;;;;;6.33;6.03;;;;;;;;;;4942215;28;20481;-76
2023/05/04 09:31:51;;;;;;;7.90;7.40;;;;;;;;;;4938516;29;20448;-76
2023/05/04 09:34:21;;;;;;;5.43;5.30;;;;;;;;;;4925883;28;20553;-78
2023/05/04 09:37:00;;;;;;;4.93;4.80;;;;;;;;;;4941318;29;20593;-76
2023/05/04 09:39:26;;;;;;;4.33;4.23;;;;;;;;;;4943851;28;20537;-76
2023/05/04 09:41:53;;;;;;;7.17;6.77;;;;;;;;;;4945742;29;20886;-76
2023/05/04 09:44:23;;;;;;;6.73;6.33;;;;;;;;;;4942427;28;20878;-76
2023/05/04 09:46:55;;;;;;;7.50;7.10;;;;;;;;;;4946238;28;21020;-76
2023/05/04 09:49:31;;;;;;;5.20;5.10;;;;;;;;;;4942801;29;20508;-76
2023/05/04 09:51:58;;;;;;;5.97;5.70;;;;;;;;;;4945807;28;20441;-78
2023/05/04 09:54:25;;;;;;;5.97;5.70;;;;;;;;;;4942781;29;20474;-77
2023/05/04 09:56:54;;;;;;;5.80;5.60;;;;;;;;;;4947120;29;20431;-77
2023/05/04 09:59:20;;;;;;;6.70;6.20;;;;;;;;;;4945791;28;20434;-78
2023/05/04 10:01:46;;;;;;;4.97;4.60;;;;;;;;;;4950573;29;20426;-77
2023/05/04 10:04:13;;;;;;;5.10;4.90;;;;;;;;;;4946153;28;20451;-77
2023/05/04 10:06:39;;;;;;;5.43;5.23;;;;;;;;;;4950139;28;20774;-77
2023/05/04 10:09:05;;;;;;;5.63;5.17;;;;;;;;;;4929161;29;20446;-77
2023/05/04 10:11:32;;;;;;;6.80;6.10;;;;;;;;;;4933553;29;20485;-78
2023/05/04 10:13:58;;;;;;;7.10;6.43;;;;;;;;;;4946797;29;20440;-77
2023/05/04 10:16:24;;;;;;;7.87;7.50;;;;;;;;;;4949445;29;20928;-77
2023/05/04 10:19:08;;;;;;;11.37;10.40;;;;;;;;;;4945629;29;20560;-78
2023/05/04 10:21:43;;;;;;;7.43;5.90;;;;;;;;;;4938095;28;20477;-76
2023/05/04 10:24:33;;;;;;;6.93;6.60;;;;;;;;;;4943241;28;20438;-77
2023/05/04 10:27:05;;;;;;;5.00;4.70;;;;;;;;;;4942737;28;20813;-77
2023/05/04 10:29:32;;;;;;;3.97;3.97;;;;;;;;;;4948988;28;20786;-76
2023/05/04 10:31:58;;;;;;;5.40;5.10;;;;;;;;;;4945801;29;20994;-73
2023/05/04 10:34:32;;;;;;;4.60;4.50;;;;;;;;;;4949174;29;20426;-75
2023/05/04 10:36:59;;;;;;;6.10;5.80;;;;;;;;;;4945976;28;20492;-75
2023/05/04 10:39:34;;;;;;;4.40;4.40;;;;;;;;;;4948817;28;20430;-75
2023/05/04 10:42:02;;;;;;;5.33;5.00;;;;;;;;;;4925373;29;20530;-75
2023/05/04 10:44:28;;;;;;;5.87;5.77;;;;;;;;;;4932476;29;20440;-76
2023/05/04 10:46:58;;;;;;;5.10;4.70;;;;;;;;;;4930378;29;20555;-76
2023/05/04 10:49:24;;;;;;;6.20;6.03;;;;;;;;;;4930244;29;20435;-77
2023/05/04 10:51:51;;;;;;;6.67;6.30;;;;;;;;;;4915619;29;20471;-75
2023/05/04 10:54:20;;;;;;;7.30;6.80;;;;;;;;;;4929443;29;20580;-74
2023/05/04 10:56:46;;;;;;;5.50;5.30;;;;;;;;;;4919225;29;20719;-75
2023/05/04 10:59:13;;;;;;;5.73;5.53;;;;;;;;;;4929256;29;20530;-75
2023/05/04 11:01:43;;;;;;;5.80;5.60;;;;;;;;;;4920331;29;20442;-75
2023/05/04 11:04:22;;;;;;;6.63;6.10;;;;;;;;;;4928524;29;20465;-73
2023/05/04 11:07:01;;;;;;;5.03;4.83;;;;;;;;;;4921613;29;20442;-73
2023/05/04 11:09:28;;;;;;;5.17;4.97;;;;;;;;;;4928443;29;20458;-73
2023/05/04 11:11:55;;;;;;;4.10;4.00;;;;;;;;;;4925056;29;20455;-74
2023/05/04 11:14:25;;;;;;;5.20;5.00;;;;;;;;;;4925703;29;21117;-74
2023/05/04 11:16:52;;;;;;;4.60;4.50;;;;;;;;;;4925161;29;20550;-76
2023/05/04 11:19:18;;;;;;;5.73;5.30;;;;;;;;;;4930645;29;20571;-76
2023/05/04 11:21:44;;;;;;;4.33;4.20;;;;;;;;;;4927693;29;20549;-76
2023/05/04 11:24:11;;;;;;;4.17;4.07;;;;;;;;;;4913884;29;20534;-77
2023/05/04 11:26:47;;;;;;;5.37;4.70;;;;;;;;;;4924227;29;20458;-77
2023/05/04 11:29:13;;;;;;;3.63;3.53;;;;;;;;;;4927228;29;20455;-77
2023/05/04 11:31:39;;;;;;;3.90;3.70;;;;;;;;;;4926049;29;20443;-77
2023/05/04 11:34:06;;;;;;;4.20;3.87;;;;;;;;;;4929586;29;20439;-75
2023/05/04 11:36:39;;;;;;;3.60;3.50;;;;;;;;;;4909850;29;20451;-76
2023/05/04 11:39:07;;;;;;;4.57;3.60;;;;;;;;;;4910563;29;20644;-75
2023/05/04 11:41:33;;;;;;;5.50;5.13;;;;;;;;;;4941985;29;20486;-74
2023/05/04 11:44:00;;;;;;;4.00;3.87;;;;;;;;;;4947221;29;20918;-76
2023/05/04 11:46:27;;;;;;;3.80;3.80;;;;;;;;;;4944686;29;20442;-76
2023/05/04 11:48:53;;;;;;;3.23;3.23;;;;;;;;;;4947317;29;20545;-75
2023/05/04 11:51:23;;;;;;;3.77;3.77;;;;;;;;;;4944518;29;20442;-76
2023/05/04 11:53:49;;;;;;;3.50;3.40;;;;;;;;;;4947547;29;20433;-75
2023/05/04 11:56:16;;;;;;;3.40;3.20;;;;;;;;;;4945549;29;20790;-74
2023/05/04 11:58:42;;;;;;;3.57;3.33;;;;;;;;;;4947795;29;20476;-75
2023/05/04 12:01:08;;;;;;;3.10;3.00;;;;;;;;;;4945774;28;20461;-76
2023/05/04 12:03:38;;;;;;;4.23;3.97;;;;;;;;;;4941165;29;20655;-74
2023/05/04 12:06:04;;;;;;;4.73;4.43;;;;;;;;;;4936038;29;20446;-76
2023/05/04 12:08:33;;;;;;;3.70;3.50;;;;;;;;;;4948014;29;20976;-74
2023/05/04 12:11:27;;;;;;;3.67;3.57;;;;;;;;;;4944614;29;20941;-74
2023/05/04 12:14:04;;;;;;;5.90;5.70;;;;;;;;;;4945924;29;20940;-76
2023/05/04 12:16:30;;;;;;;4.93;4.73;;;;;;;;;;4944388;29;20489;-74
2023/05/04 12:19:03;;;;;;;3.70;3.50;;;;;;;;;;4947843;29;20437;-74
2023/05/04 12:21:30;;;;;;;4.37;3.20;;;;;;;;;;4938018;28;20439;-74
2023/05/04 12:23:59;;;;;;;3.40;3.30;;;;;;;;;;4942485;29;21241;-77
2023/05/04 12:26:25;;;;;;;3.90;3.80;;;;;;;;;;4941240;28;20441;-73
2023/05/04 12:28:51;;;;;;;3.03;3.03;;;;;;;;;;4942738;28;20930;-75
2023/05/04 12:31:17;;;;;;;3.20;3.10;;;;;;;;;;4943885;29;20815;-75
2023/05/04 12:33:44;;;;;;;3.70;3.57;;;;;;;;;;4942717;29;20423;-74
2023/05/04 12:36:10;;;;;;;4.00;4.00;;;;;;;;;;4943737;29;20899;-74
2023/05/04 12:38:39;;;;;;;3.83;3.53;;;;;;;;;;4943036;29;20465;-74
2023/05/04 12:41:09;;;;;;;3.63;3.53;;;;;;;;;;4936858;28;20467;-76
2023/05/04 12:43:35;;;;;;;3.07;3.07;;;;;;;;;;4942990;29;20436;-75
2023/05/04 12:46:04;;;;;;;3.37;3.27;;;;;;;;;;4959103;28;20438;-74
2023/05/04 12:48:33;;;;;;;3.40;3.10;;;;;;;;;;4958764;28;20478;-76
2023/05/04 12:50:59;;;;;;;2.77;2.77;;;;;;;;;;4942638;29;20471;-75
2023/05/04 12:53:28;;;;;;;3.30;3.10;;;;;;;;;;4946044;29;20804;-76
2023/05/04 12:55:55;;;;;;;4.27;4.17;;;;;;;;;;4942457;29;20827;-75
2023/05/04 12:58:21;;;;;;;3.03;2.83;;;;;;;;;;4946709;29;20537;-75
2023/05/04 13:00:48;;;;;;;3.20;3.00;;;;;;;;;;4941846;29;20460;-74
2023/05/04 13:03:16;;;;;;;3.43;3.20;;;;;;;;;;4942898;29;20430;-75
2023/05/04 13:05:42;;;;;;;3.10;3.10;;;;;;;;;;4934475;29;21232;-76
2023/05/04 13:08:08;;;;;;;2.70;2.70;;;;;;;;;;4937975;28;20475;-75
2023/05/04 13:10:34;;;;;;;3.40;3.30;;;;;;;;;;4926253;29;20898;-75
2023/05/04 13:13:00;;;;;;;2.87;2.60;;;;;;;;;;4944838;29;20476;-77
2023/05/04 13:15:26;;;;;;;3.10;3.00;;;;;;;;;;4942220;29;20441;-76
2023/05/04 13:17:53;;;;;;;3.40;3.30;;;;;;;;;;4946762;28;20891;-76
2023/05/04 13:20:19;;;;;;;2.83;2.63;;;;;;;;;;4942867;29;20449;-75
2023/05/04 13:22:49;;;;;;;2.80;2.70;;;;;;;;;;4933981;29;21147;-76
2023/05/04 13:25:15;;;;;;;2.83;2.83;;;;;;;;;;4945252;29;21207;-74
2023/05/04 13:27:41;;;;;;;3.40;3.20;;;;;;;;;;4944674;29;20477;-75
2023/05/04 13:30:09;;;;;;;3.50;3.30;;;;;;;;;;4944420;28;20970;-76
2023/05/04 13:32:35;;;;;;;3.17;3.07;;;;;;;;;;4926805;28;20438;-76
2023/05/04 13:35:02;;;;;;;3.63;3.53;;;;;;;;;;4947685;29;20961;-74
2023/05/04 13:37:28;;;;;;;3.27;3.17;;;;;;;;;;4948416;29;20514;-74
2023/05/04 13:39:55;;;;;;;3.10;3.10;;;;;;;;;;4947887;28;20448;-75
2023/05/04 13:42:21;;;;;;;3.63;3.50;;;;;;;;;;4941412;28;20426;-75
2023/05/04 13:44:47;;;;;;;2.67;2.67;;;;;;;;;;4951731;28;20851;-74
2023/05/04 13:47:14;;;;;;;3.37;3.27;;;;;;;;;;4950184;28;20466;-74
2023/05/04 13:49:41;;;;;;;3.53;3.43;;;;;;;;;;4941693;28;20610;-75
2023/05/04 13:52:07;;;;;;;3.00;2.90;;;;;;;;;;4945445;28;20443;-74
2023/05/04 13:54:34;;;;;;;2.87;2.87;;;;;;;;;;4943383;28;20537;-75
2023/05/04 13:57:00;;;;;;;3.10;3.00;;;;;;;;;;4944899;28;20879;-74
2023/05/04 13:59:26;;;;;;;3.03;2.90;;;;;;;;;;4931939;28;20971;-75
2023/05/04 14:01:52;;;;;;;3.00;2.83;;;;;;;;;;4946670;28;20508;-76
2023/05/04 14:04:18;;;;;;;3.17;3.17;;;;;;;;;;4947124;28;20549;-76
2023/05/04 14:06:51;;;;;;;4.00;2.97;;;;;;;;;;4946350;28;20438;-76
2023/05/04 14:09:18;;;;;;;2.50;2.43;;;;;;;;;;4947418;28;20481;-75
2023/05/04 14:11:45;;;;;;;2.53;2.53;;;;;;;;;;4941191;28;20505;-75
2023/05/04 14:14:11;;;;;;;2.30;2.30;;;;;;;;;;4939304;28;20537;-74
2023/05/04 14:16:37;;;;;;;2.83;2.83;;;;;;;;;;4950095;28;20539;-75
2023/05/04 14:19:03;;;;;;;3.30;3.00;;;;;;;;;;4948862;28;20430;-74
2023/05/04 14:21:29;;;;;;;2.60;2.60;;;;;;;;;;4945861;28;20522;-75
2023/05/04 14:23:55;;;;;;;3.10;3.00;;;;;;;;;;4945189;28;20438;-74
2023/05/04 14:26:21;;;;;;;2.93;2.87;;;;;;;;;;4942299;28;20442;-75
2023/05/04 14:28:47;;;;;;;2.70;2.50;;;;;;;;;;4948178;28;20988;-76
2023/05/04 14:31:13;;;;;;;2.90;2.63;;;;;;;;;;4940805;28;20525;-77
2023/05/04 14:33:40;;;;;;;3.43;3.33;;;;;;;;;;4937433;28;20818;-79